Time;durP1;ratioP1;P1;durP2;ratioP2;P2;SDS_P1;SDS_P2;PMS_P1;PMS_P2;Temp;Humidity;BMP_temperature;BMP_pressure;BME280_temperature;BME280_humidity;BME280_pressure;Samples;Min_cycle;Max_cycle;Signal;HPM_P1;HPM_P2
2024/01/07 00:00:35;;;;;;;6.53;4.88;;;4.30;99.90;;;;;;5074571;28;20496;-64
2024/01/07 00:03:00;;;;;;;8.82;5.53;;;4.30;99.90;;;;;;5063255;28;20382;-64
2024/01/07 00:05:26;;;;;;;7.30;5.15;;;4.20;99.90;;;;;;5072305;28;20101;-64
2024/01/07 00:07:51;;;;;;;9.05;5.80;;;4.20;99.90;;;;;;5075074;28;20465;-64
2024/01/07 00:10:17;;;;;;;8.50;5.63;;;4.20;99.90;;;;;;5074307;28;20027;-64
2024/01/07 00:12:44;;;;;;;9.32;6.10;;;4.20;99.90;;;;;;5074875;28;20024;-63
2024/01/07 00:15:09;;;;;;;9.38;5.82;;;4.20;99.90;;;;;;5074339;28;20054;-63
2024/01/07 00:17:35;;;;;;;7.50;5.47;;;4.20;99.90;;;;;;5074270;28;20032;-63
2024/01/07 00:20:01;;;;;;;8.02;5.53;;;4.10;99.90;;;;;;5074085;28;20035;-63
2024/01/07 00:22:26;;;;;;;8.68;5.40;;;4.10;99.90;;;;;;5074320;28;20399;-63
2024/01/07 00:24:52;;;;;;;7.82;5.13;;;4.10;99.90;;;;;;5074550;28;20075;-63
2024/01/07 00:27:18;;;;;;;7.70;5.25;;;4.10;99.90;;;;;;5074114;28;20080;-63
2024/01/07 00:29:43;;;;;;;7.70;4.97;;;4.10;99.90;;;;;;5074513;28;20024;-63
2024/01/07 00:32:09;;;;;;;7.18;5.13;;;4.00;99.90;;;;;;5074341;28;20462;-63
2024/01/07 00:34:34;;;;;;;8.00;5.10;;;4.00;99.90;;;;;;5074285;28;20422;-63
2024/01/07 00:37:00;;;;;;;7.85;5.07;;;4.00;99.90;;;;;;5074165;28;20036;-63
2024/01/07 00:39:25;;;;;;;9.18;5.57;;;3.90;99.90;;;;;;5074048;28;20055;-63
2024/01/07 00:41:51;;;;;;;6.85;4.82;;;3.90;99.90;;;;;;5059502;28;20135;-63
2024/01/07 00:44:17;;;;;;;7.80;4.63;;;3.90;99.90;;;;;;5059543;28;20042;-63
2024/01/07 00:46:43;;;;;;;7.40;4.75;;;3.90;99.90;;;;;;5074367;28;20029;-63
2024/01/07 00:49:08;;;;;;;8.70;5.13;;;3.90;99.90;;;;;;5073824;28;20028;-63
2024/01/07 00:51:34;;;;;;;6.85;4.60;;;3.90;99.90;;;;;;5072573;28;20020;-63
2024/01/07 00:53:59;;;;;;;8.02;5.03;;;3.90;99.90;;;;;;5073689;28;20047;-64
2024/01/07 00:56:28;;;;;;;5.82;4.47;;;3.90;99.90;;;;;;5073990;28;20090;-63
2024/01/07 00:58:54;;;;;;;7.00;4.72;;;3.80;99.90;;;;;;5073700;28;20056;-63
2024/01/07 01:01:19;;;;;;;7.13;4.43;;;3.90;99.90;;;;;;5073194;28;20017;-63
2024/01/07 01:03:45;;;;;;;6.30;4.20;;;3.80;99.90;;;;;;5073934;28;20479;-63
2024/01/07 01:06:11;;;;;;;6.15;4.25;;;3.80;99.90;;;;;;5073366;28;20090;-64
2024/01/07 01:08:37;;;;;;;7.05;5.13;;;3.80;99.90;;;;;;5073805;28;20158;-63
2024/01/07 01:11:03;;;;;;;9.88;4.65;;;3.70;99.90;;;;;;5073367;28;20025;-62
2024/01/07 01:13:28;;;;;;;8.70;4.82;;;3.70;99.90;;;;;;5073609;28;20509;-63
2024/01/07 01:15:55;;;;;;;6.30;5.05;;;3.70;99.90;;;;;;5073545;28;20028;-63
2024/01/07 01:18:20;;;;;;;5.85;4.55;;;3.70;99.90;;;;;;5073284;28;20112;-63
2024/01/07 01:20:46;;;;;;;6.05;4.53;;;3.70;99.90;;;;;;5073623;28;20111;-63
2024/01/07 01:23:12;;;;;;;6.40;4.43;;;3.60;99.90;;;;;;5073580;28;20032;-63
2024/01/07 01:25:39;;;;;;;6.00;4.40;;;3.60;99.90;;;;;;5073604;28;20480;-64
2024/01/07 01:28:05;;;;;;;5.65;4.25;;;3.70;99.90;;;;;;5073159;28;20070;-63
2024/01/07 01:30:31;;;;;;;6.10;4.20;;;3.70;99.90;;;;;;5073202;28;20077;-63
2024/01/07 01:32:57;;;;;;;6.03;4.07;;;3.60;99.90;;;;;;5073297;28;20029;-63
2024/01/07 01:35:23;;;;;;;5.00;4.05;;;3.70;99.90;;;;;;5073109;28;20059;-64
2024/01/07 01:37:49;;;;;;;6.93;4.35;;;3.60;99.90;;;;;;5073789;28;20025;-63
2024/01/07 01:40:16;;;;;;;6.38;4.15;;;3.60;99.90;;;;;;5072898;28;20024;-63
2024/01/07 01:42:45;;;;;;;9.13;4.80;;;3.60;99.90;;;;;;5073165;28;20021;-63
2024/01/07 01:45:11;;;;;;;7.55;4.43;;;3.60;99.90;;;;;;5071291;28;20039;-63
2024/01/07 01:47:36;;;;;;;6.43;4.22;;;3.60;99.90;;;;;;5073021;28;20037;-63
2024/01/07 01:50:03;;;;;;;4.93;3.53;;;3.50;99.90;;;;;;5072650;28;20090;-63
2024/01/07 01:52:28;;;;;;;6.25;4.15;;;3.50;99.90;;;;;;5072996;28;20016;-63
2024/01/07 01:54:54;;;;;;;6.30;4.22;;;3.50;99.90;;;;;;5073107;28;20054;-63
2024/01/07 01:57:24;;;;;;;6.07;4.68;;;3.50;99.90;;;;;;5058629;28;20127;-63
2024/01/07 01:59:50;;;;;;;6.18;4.00;;;3.50;99.90;;;;;;5053004;28;20048;-63
2024/01/07 02:02:15;;;;;;;6.88;4.35;;;3.50;99.90;;;;;;5052314;28;20480;-62
2024/01/07 02:04:41;;;;;;;6.25;4.22;;;3.50;99.90;;;;;;5051872;28;20029;-63
2024/01/07 02:07:07;;;;;;;6.57;4.45;;;3.50;99.90;;;;;;5052535;28;20032;-62
2024/01/07 02:09:32;;;;;;;6.32;4.57;;;3.40;99.90;;;;;;5052650;28;20354;-62
2024/01/07 02:12:05;;;;;;;7.40;4.95;;;3.40;99.90;;;;;;5052550;28;20021;-63
2024/01/07 02:14:31;;;;;;;6.82;4.82;;;3.30;99.90;;;;;;5052507;28;20123;-62
2024/01/07 02:16:57;;;;;;;7.38;5.05;;;3.30;99.90;;;;;;5052116;28;20032;-64
2024/01/07 02:19:23;;;;;;;7.30;5.07;;;3.30;99.90;;;;;;5051738;28;20612;-64
2024/01/07 02:21:51;;;;;;;7.15;4.47;;;3.20;99.90;;;;;;5052389;28;20040;-64
2024/01/07 02:24:17;;;;;;;6.78;4.53;;;3.30;99.90;;;;;;5052057;28;20454;-64
2024/01/07 02:26:43;;;;;;;7.15;4.45;;;3.20;99.90;;;;;;5052428;28;20036;-63
2024/01/07 02:29:09;;;;;;;7.47;4.38;;;3.20;99.90;;;;;;5051802;28;20025;-64
2024/01/07 02:31:34;;;;;;;7.97;4.88;;;3.20;99.90;;;;;;5052657;28;20033;-63
2024/01/07 02:34:00;;;;;;;7.50;4.90;;;3.20;99.90;;;;;;5051445;28;20025;-63
2024/01/07 02:36:25;;;;;;;8.00;5.40;;;3.20;99.90;;;;;;5051796;28;20500;-64
2024/01/07 02:38:51;;;;;;;7.97;5.28;;;3.20;99.90;;;;;;5051935;28;20032;-64
2024/01/07 02:41:16;;;;;;;7.00;4.80;;;3.20;99.90;;;;;;5051586;28;20068;-63
2024/01/07 02:43:42;;;;;;;7.13;4.80;;;3.20;99.90;;;;;;5052029;28;20470;-64
2024/01/07 02:46:08;;;;;;;9.32;5.50;;;3.20;99.90;;;;;;5053711;28;20490;-65
2024/01/07 02:48:34;;;;;;;8.20;5.80;;;3.20;99.90;;;;;;5072077;28;20037;-64
2024/01/07 02:51:00;;;;;;;9.05;5.72;;;3.20;99.90;;;;;;5071843;28;20020;-63
2024/01/07 02:53:26;;;;;;;9.82;5.10;;;3.20;99.90;;;;;;5071689;28;20044;-63
2024/01/07 02:55:51;;;;;;;7.10;5.05;;;3.20;99.90;;;;;;5071508;28;20033;-62
2024/01/07 02:58:17;;;;;;;8.77;5.28;;;3.20;99.90;;;;;;5070952;28;20121;-63
2024/01/07 03:00:42;;;;;;;8.27;4.85;;;3.10;99.90;;;;;;5071743;28;20064;-64
2024/01/07 03:03:08;;;;;;;8.88;5.68;;;3.10;99.90;;;;;;5071608;28;20036;-64
2024/01/07 03:05:34;;;;;;;7.25;5.55;;;3.10;99.90;;;;;;5071239;28;20118;-63
2024/01/07 03:08:00;;;;;;;9.20;6.00;;;3.00;99.90;;;;;;5071600;28;20033;-63
2024/01/07 03:10:26;;;;;;;8.52;6.07;;;3.00;99.90;;;;;;5071070;28;20036;-63
2024/01/07 03:12:51;;;;;;;8.00;5.68;;;3.00;99.90;;;;;;5071799;28;20025;-62
2024/01/07 03:15:17;;;;;;;8.45;5.65;;;3.00;99.90;;;;;;5071082;28;20367;-63
2024/01/07 03:17:43;;;;;;;9.88;6.30;;;3.00;99.90;;;;;;5074710;28;20025;-63
2024/01/07 03:20:09;;;;;;;8.05;5.57;;;3.00;99.90;;;;;;5075348;28;20380;-64
2024/01/07 03:22:35;;;;;;;9.30;5.65;;;3.00;99.90;;;;;;5075517;28;20035;-63
2024/01/07 03:25:01;;;;;;;9.70;5.75;;;3.00;99.90;;;;;;5075466;28;20384;-63
2024/01/07 03:27:26;;;;;;;9.25;5.80;;;3.00;99.90;;;;;;5075180;28;20032;-63
2024/01/07 03:29:52;;;;;;;8.90;5.72;;;2.90;99.90;;;;;;5075385;28;20095;-63
2024/01/07 03:32:18;;;;;;;8.65;6.00;;;3.00;99.90;;;;;;5075084;28;20449;-63
2024/01/07 03:34:43;;;;;;;8.25;6.15;;;3.00;99.90;;;;;;5075328;28;20112;-63
2024/01/07 03:37:09;;;;;;;8.13;5.20;;;3.00;99.90;;;;;;5075274;28;20103;-64
2024/01/07 03:39:34;;;;;;;9.23;5.82;;;3.00;99.90;;;;;;5075378;28;20043;-63
2024/01/07 03:42:00;;;;;;;9.15;5.72;;;2.90;99.90;;;;;;5075470;28;20059;-63
2024/01/07 03:44:26;;;;;;;8.77;6.00;;;3.00;99.90;;;;;;5074690;28;20051;-63
2024/01/07 03:46:52;;;;;;;9.15;5.90;;;3.00;99.90;;;;;;5074802;28;20442;-62
2024/01/07 03:49:20;;;;;;;9.40;6.45;;;3.00;99.90;;;;;;5074544;28;20016;-63
2024/01/07 03:51:46;;;;;;;9.38;6.22;;;3.00;99.90;;;;;;5074971;28;20399;-63
2024/01/07 03:54:11;;;;;;;10.45;7.15;;;2.90;99.90;;;;;;5056137;28;20059;-64
2024/01/07 03:56:37;;;;;;;9.57;6.57;;;2.90;99.90;;;;;;5062989;28;20032;-64
2024/01/07 03:59:02;;;;;;;11.07;7.32;;;2.90;99.90;;;;;;5062270;28;20053;-63
2024/01/07 04:01:28;;;;;;;10.57;7.20;;;2.90;99.90;;;;;;5065357;28;20054;-63
2024/01/07 04:03:53;;;;;;;10.15;7.22;;;2.80;99.90;;;;;;5065311;28;20025;-63
2024/01/07 04:06:19;;;;;;;10.25;7.32;;;2.80;99.90;;;;;;5065656;28;20028;-63
2024/01/07 04:08:45;;;;;;;10.50;7.40;;;2.80;99.90;;;;;;5064723;28;20043;-63
2024/01/07 04:11:11;;;;;;;11.80;7.30;;;2.80;99.90;;;;;;5069545;28;20032;-65
2024/01/07 04:13:36;;;;;;;11.15;7.72;;;2.70;99.90;;;;;;5074800;28;20082;-64
2024/01/07 04:16:02;;;;;;;10.02;7.47;;;2.70;99.90;;;;;;5074614;28;20028;-62
2024/01/07 04:18:28;;;;;;;10.65;7.35;;;2.70;99.90;;;;;;5074122;28;20034;-64
2024/01/07 04:20:53;;;;;;;10.13;7.20;;;2.80;99.90;;;;;;5074208;28;20032;-63
2024/01/07 04:23:19;;;;;;;11.50;7.45;;;2.70;99.90;;;;;;5073753;28;20067;-63
2024/01/07 04:25:45;;;;;;;11.90;7.93;;;2.80;99.90;;;;;;5059703;28;20216;-63
2024/01/07 04:28:10;;;;;;;10.18;7.68;;;2.80;99.90;;;;;;5052859;28;20147;-63
2024/01/07 04:30:36;;;;;;;11.80;7.70;;;2.70;99.90;;;;;;5053976;28;20032;-63
2024/01/07 04:33:02;;;;;;;12.10;7.53;;;2.70;99.90;;;;;;5054415;28;20061;-64
2024/01/07 04:35:27;;;;;;;11.35;7.90;;;2.70;99.90;;;;;;5054122;28;20115;-62
2024/01/07 04:37:53;;;;;;;11.85;8.05;;;2.70;99.90;;;;;;5054328;28;20140;-63
2024/01/07 04:40:18;;;;;;;11.45;8.05;;;2.70;99.90;;;;;;5053561;28;20470;-63
2024/01/07 04:42:44;;;;;;;11.25;7.82;;;2.70;99.90;;;;;;5054281;28;20021;-63
2024/01/07 04:45:10;;;;;;;9.48;7.28;;;2.70;99.90;;;;;;5054124;28;20036;-64
2024/01/07 04:47:36;;;;;;;10.32;7.47;;;2.70;99.90;;;;;;5054219;28;20438;-64
2024/01/07 04:50:02;;;;;;;12.05;8.07;;;2.70;99.90;;;;;;5054035;28;20044;-63
2024/01/07 04:52:28;;;;;;;10.82;7.63;;;2.70;99.90;;;;;;5053706;28;20052;-63
2024/01/07 04:54:54;;;;;;;9.52;7.38;;;2.70;99.90;;;;;;5053678;28;20056;-63
2024/01/07 04:57:21;;;;;;;10.85;7.57;;;2.70;99.90;;;;;;5053236;28;20504;-64
2024/01/07 04:59:47;;;;;;;12.27;7.95;;;2.70;99.90;;;;;;5054011;28;20041;-63
2024/01/07 05:02:13;;;;;;;9.82;7.22;;;2.70;99.90;;;;;;5053601;28;20025;-62
2024/01/07 05:04:39;;;;;;;11.52;7.70;;;2.70;99.90;;;;;;5053308;28;20548;-64
2024/01/07 05:07:04;;;;;;;11.63;7.88;;;2.70;99.90;;;;;;5053794;28;20322;-63
2024/01/07 05:09:30;;;;;;;12.02;7.68;;;2.70;99.90;;;;;;5053411;28;20135;-63
2024/01/07 05:11:56;;;;;;;12.25;7.55;;;2.70;99.90;;;;;;5053679;28;20378;-63
2024/01/07 05:14:22;;;;;;;9.23;6.70;;;2.70;99.90;;;;;;5053279;28;20058;-64
2024/01/07 05:16:48;;;;;;;11.45;7.20;;;2.70;99.90;;;;;;5053298;28;20330;-62
2024/01/07 05:19:14;;;;;;;11.07;7.90;;;2.70;99.90;;;;;;5053624;28;20017;-62
2024/01/07 05:21:39;;;;;;;10.07;7.57;;;2.70;99.90;;;;;;5053074;28;20040;-63
2024/01/07 05:24:05;;;;;;;10.93;7.38;;;2.60;99.90;;;;;;5053085;28;20052;-63
2024/01/07 05:26:31;;;;;;;11.73;8.02;;;2.70;99.90;;;;;;5052906;28;20033;-63
2024/01/07 05:28:56;;;;;;;10.77;7.72;;;2.60;99.90;;;;;;5053334;28;20052;-63
2024/01/07 05:31:22;;;;;;;11.00;7.10;;;2.60;99.90;;;;;;5052635;28;20371;-64
2024/01/07 05:33:48;;;;;;;11.00;7.97;;;2.60;99.90;;;;;;5053338;28;20025;-63
2024/01/07 05:36:14;;;;;;;10.43;7.00;;;2.60;99.90;;;;;;5053351;28;20036;-63
2024/01/07 05:38:43;;;;;;;10.23;6.90;;;2.60;99.90;;;;;;5052804;28;20043;-63
2024/01/07 05:41:08;;;;;;;11.00;7.57;;;2.60;99.90;;;;;;5052154;28;20373;-63
2024/01/07 05:43:36;;;;;;;9.82;7.70;;;2.60;99.90;;;;;;5052759;28;20025;-63
2024/01/07 05:46:02;;;;;;;10.77;7.65;;;2.50;99.90;;;;;;5052879;28;20055;-63
2024/01/07 05:48:28;;;;;;;10.38;7.40;;;2.50;99.90;;;;;;5052483;28;20107;-62
2024/01/07 05:50:54;;;;;;;9.70;7.28;;;2.40;99.90;;;;;;5050411;28;20513;-64
2024/01/07 05:53:20;;;;;;;12.15;7.88;;;2.50;99.90;;;;;;5051890;28;20021;-64
2024/01/07 05:55:45;;;;;;;11.27;7.50;;;2.40;99.90;;;;;;5052253;28;20029;-63
2024/01/07 05:58:11;;;;;;;11.75;7.60;;;2.40;99.90;;;;;;5052599;28;20051;-63
2024/01/07 06:00:44;;;;;;;10.70;7.72;;;2.40;99.90;;;;;;5109104;27;20438;-62
2024/01/07 06:03:10;;;;;;;10.45;7.55;;;2.40;99.90;;;;;;5109824;28;20028;-63
2024/01/07 06:05:38;;;;;;;10.45;7.43;;;2.50;99.90;;;;;;5108976;28;20031;-63
2024/01/07 06:08:04;;;;;;;9.32;7.00;;;2.40;99.90;;;;;;5109644;28;20049;-63
2024/01/07 06:10:30;;;;;;;10.18;7.00;;;2.40;99.90;;;;;;5108883;28;20039;-63
2024/01/07 06:12:55;;;;;;;10.15;6.97;;;2.40;99.90;;;;;;5109451;28;20027;-63
2024/01/07 06:15:21;;;;;;;9.52;7.05;;;2.40;99.90;;;;;;5108992;28;20409;-65
2024/01/07 06:17:48;;;;;;;10.25;7.25;;;2.40;99.90;;;;;;5108136;28;20023;-63
2024/01/07 06:20:14;;;;;;;10.68;6.60;;;2.40;99.90;;;;;;5108811;28;20051;-62
2024/01/07 06:22:39;;;;;;;8.93;6.90;;;2.40;99.90;;;;;;5108630;28;20055;-62
2024/01/07 06:25:05;;;;;;;8.65;6.70;;;2.30;99.90;;;;;;5109101;28;20077;-62
2024/01/07 06:27:31;;;;;;;10.45;7.35;;;2.30;99.90;;;;;;5108166;28;20024;-62
2024/01/07 06:29:57;;;;;;;10.90;7.07;;;2.30;99.90;;;;;;5109136;28;20032;-64
2024/01/07 06:32:22;;;;;;;12.35;7.35;;;2.30;99.90;;;;;;5108449;28;20383;-64
2024/01/07 06:34:49;;;;;;;12.95;6.97;;;2.20;99.90;;;;;;5108468;28;20169;-64
2024/01/07 06:37:15;;;;;;;11.48;7.63;;;2.20;99.90;;;;;;5107570;28;20403;-64
2024/01/07 06:39:41;;;;;;;10.65;6.93;;;2.20;99.90;;;;;;5108481;28;20034;-63
2024/01/07 06:42:06;;;;;;;11.80;7.80;;;2.20;99.90;;;;;;5108949;28;20028;-63
2024/01/07 06:44:32;;;;;;;10.40;7.30;;;2.10;99.90;;;;;;5107850;28;20030;-65
2024/01/07 06:46:57;;;;;;;9.38;6.63;;;2.10;99.90;;;;;;5108332;28;20103;-64
2024/01/07 06:49:23;;;;;;;10.57;6.82;;;2.10;99.90;;;;;;5108442;28;20154;-64
2024/01/07 06:51:49;;;;;;;10.60;6.70;;;2.10;99.90;;;;;;5110971;28;20028;-63
2024/01/07 06:54:14;;;;;;;8.98;6.60;;;2.10;99.90;;;;;;5108209;28;20434;-64
2024/01/07 06:56:40;;;;;;;8.55;6.85;;;2.00;99.90;;;;;;5107753;28;20028;-64
2024/01/07 06:59:07;;;;;;;9.95;6.93;;;2.00;99.90;;;;;;5107374;28;20413;-63
2024/01/07 07:01:32;;;;;;;9.80;6.63;;;2.10;99.90;;;;;;5107541;28;20032;-64
2024/01/07 07:03:58;;;;;;;12.15;7.03;;;2.00;99.90;;;;;;5107978;28;20543;-64
2024/01/07 07:06:24;;;;;;;8.95;6.30;;;2.00;99.90;;;;;;5108084;28;20012;-64
2024/01/07 07:08:49;;;;;;;9.38;6.07;;;2.00;99.90;;;;;;5107670;28;20067;-64
2024/01/07 07:11:16;;;;;;;10.25;6.78;;;2.00;99.90;;;;;;5098913;28;20028;-63
2024/01/07 07:13:42;;;;;;;10.63;7.03;;;1.90;99.90;;;;;;5094065;28;20024;-63
2024/01/07 07:16:07;;;;;;;11.70;6.93;;;1.90;99.90;;;;;;5093940;28;20433;-64
2024/01/07 07:18:33;;;;;;;11.63;6.85;;;1.90;99.90;;;;;;5093272;28;20119;-63
2024/01/07 07:20:59;;;;;;;11.05;7.28;;;1.90;99.90;;;;;;5093830;28;20070;-66
2024/01/07 07:23:25;;;;;;;12.13;6.80;;;1.80;99.90;;;;;;5093806;28;20457;-64
2024/01/07 07:25:51;;;;;;;10.07;6.57;;;1.90;99.90;;;;;;5093738;28;20130;-63
2024/01/07 07:28:17;;;;;;;10.98;7.22;;;1.80;99.90;;;;;;5093922;28;20340;-63
2024/01/07 07:30:43;;;;;;;10.40;6.65;;;1.80;99.90;;;;;;5093468;28;20074;-62
2024/01/07 07:33:08;;;;;;;10.52;7.03;;;1.80;99.90;;;;;;5091153;28;20410;-63
2024/01/07 07:35:34;;;;;;;10.15;6.32;;;1.80;99.90;;;;;;5093300;28;20438;-63
2024/01/07 07:37:59;;;;;;;11.40;6.95;;;1.70;99.90;;;;;;5093548;28;20099;-63
2024/01/07 07:40:25;;;;;;;10.57;6.88;;;1.70;99.90;;;;;;5093606;28;20043;-63
2024/01/07 07:42:51;;;;;;;10.63;6.85;;;1.60;99.90;;;;;;5093530;28;20441;-64
2024/01/07 07:45:17;;;;;;;9.23;6.70;;;1.60;99.90;;;;;;5093922;28;20070;-63
2024/01/07 07:47:44;;;;;;;11.48;7.43;;;1.60;99.90;;;;;;5093220;28;20103;-63
2024/01/07 07:50:11;;;;;;;12.55;7.72;;;1.70;99.90;;;;;;5090717;28;20030;-63
2024/01/07 07:52:37;;;;;;;12.18;7.38;;;1.70;99.90;;;;;;5093379;28;20028;-63
2024/01/07 07:55:02;;;;;;;11.80;6.93;;;1.70;99.90;;;;;;5093530;28;20020;-63
2024/01/07 07:57:28;;;;;;;11.57;6.80;;;1.60;99.90;;;;;;5093472;28;20020;-63
2024/01/07 07:59:54;;;;;;;13.52;7.25;;;1.60;99.90;;;;;;5092543;28;20047;-63
2024/01/07 08:02:20;;;;;;;8.65;6.15;;;1.60;99.90;;;;;;5093526;28;20317;-63
2024/01/07 08:04:47;;;;;;;10.93;6.95;;;1.70;99.90;;;;;;5092607;28;20028;-64
2024/01/07 08:07:12;;;;;;;9.98;6.47;;;1.70;99.90;;;;;;5093913;28;20429;-63
2024/01/07 08:09:38;;;;;;;10.93;6.85;;;1.70;99.90;;;;;;5102304;28;20115;-62
2024/01/07 08:12:07;;;;;;;8.70;6.22;;;1.60;99.90;;;;;;5112145;28;20026;-63
2024/01/07 08:14:33;;;;;;;8.68;6.15;;;1.60;99.90;;;;;;5111104;28;20425;-65
2024/01/07 08:16:59;;;;;;;9.45;6.13;;;1.60;99.90;;;;;;5106541;28;20054;-63
2024/01/07 08:19:24;;;;;;;10.13;6.22;;;1.60;99.90;;;;;;5111535;28;20055;-62
2024/01/07 08:21:50;;;;;;;11.65;6.95;;;1.50;99.90;;;;;;5110303;28;20019;-64
2024/01/07 08:24:16;;;;;;;10.40;6.78;;;1.60;99.90;;;;;;5110472;28;20028;-64
2024/01/07 08:26:41;;;;;;;11.60;7.03;;;1.50;99.90;;;;;;5111027;28;20094;-64
2024/01/07 08:29:07;;;;;;;10.38;6.53;;;1.50;99.90;;;;;;5111113;28;20149;-63
2024/01/07 08:31:33;;;;;;;9.35;6.13;;;1.50;99.90;;;;;;5110120;28;20028;-63
2024/01/07 08:33:58;;;;;;;10.52;7.22;;;1.60;99.90;;;;;;5105895;28;20037;-63
2024/01/07 08:36:24;;;;;;;12.13;7.50;;;1.60;99.90;;;;;;5111057;28;20030;-63
2024/01/07 08:38:50;;;;;;;10.30;6.72;;;1.60;99.90;;;;;;5109969;28;20032;-63
2024/01/07 08:41:16;;;;;;;9.55;6.28;;;1.60;99.90;;;;;;5110321;28;20032;-65
2024/01/07 08:43:41;;;;;;;9.98;6.82;;;1.60;99.90;;;;;;5108998;28;20448;-63
2024/01/07 08:46:07;;;;;;;7.75;5.63;;;1.50;99.90;;;;;;5094448;28;20031;-63
2024/01/07 08:48:33;;;;;;;9.13;5.68;;;1.40;99.90;;;;;;5100372;28;20032;-65
2024/01/07 08:50:58;;;;;;;8.40;5.75;;;1.50;99.90;;;;;;5099222;28;20482;-63
2024/01/07 08:53:24;;;;;;;11.05;5.82;;;1.40;99.90;;;;;;5097874;28;20048;-64
2024/01/07 08:55:50;;;;;;;10.35;5.97;;;1.40;99.90;;;;;;5100460;28;20031;-64
2024/01/07 08:58:16;;;;;;;9.63;5.82;;;1.40;99.90;;;;;;5099844;28;20028;-63
2024/01/07 09:00:42;;;;;;;9.32;5.68;;;1.30;99.90;;;;;;5100030;28;20480;-63
2024/01/07 09:03:09;;;;;;;10.00;6.40;;;1.30;99.90;;;;;;5098105;28;20074;-63
2024/01/07 09:05:35;;;;;;;9.00;6.35;;;1.30;99.90;;;;;;5103500;28;20464;-65
2024/01/07 09:08:00;;;;;;;9.82;6.53;;;1.30;99.90;;;;;;5105202;28;20054;-63
2024/01/07 09:10:26;;;;;;;11.45;6.50;;;1.30;99.90;;;;;;5110124;28;20035;-63
2024/01/07 09:12:53;;;;;;;9.60;6.22;;;1.30;99.90;;;;;;5109405;28;20108;-63
2024/01/07 09:15:20;;;;;;;11.98;7.22;;;1.30;99.90;;;;;;5109378;28;20024;-63
2024/01/07 09:17:46;;;;;;;11.23;6.45;;;1.40;99.90;;;;;;5109340;28;20020;-63
2024/01/07 09:20:12;;;;;;;11.50;7.00;;;1.40;99.90;;;;;;5109178;28;20100;-63
2024/01/07 09:22:38;;;;;;;9.80;6.45;;;1.40;99.90;;;;;;5108474;28;20383;-63
2024/01/07 09:25:05;;;;;;;12.18;7.40;;;1.40;99.90;;;;;;5109578;28;20016;-63
2024/01/07 09:27:32;;;;;;;10.60;7.88;;;1.40;99.90;;;;;;5106725;28;20145;-63
2024/01/07 09:29:57;;;;;;;11.68;6.78;;;1.40;99.90;;;;;;5103699;28;20119;-63
2024/01/07 09:32:23;;;;;;;10.60;6.47;;;1.40;99.90;;;;;;5109412;28;20409;-64
2024/01/07 09:34:49;;;;;;;9.57;6.10;;;1.40;99.90;;;;;;5108578;28;20020;-63
2024/01/07 09:37:14;;;;;;;9.50;6.32;;;1.40;99.90;;;;;;5110189;28;20065;-63
2024/01/07 09:39:41;;;;;;;10.75;6.03;;;1.30;99.90;;;;;;5091675;28;20028;-63
2024/01/07 09:42:16;;;;;;;9.15;6.38;;;1.30;99.90;;;;;;5100355;28;20027;-63
2024/01/07 09:44:42;;;;;;;11.02;6.50;;;1.30;99.90;;;;;;5101588;28;20023;-63
2024/01/07 09:47:15;;;;;;;10.50;6.50;;;1.30;99.90;;;;;;5104176;28;20023;-63
2024/01/07 09:49:42;;;;;;;10.13;6.88;;;1.30;99.90;;;;;;5102635;28;20023;-63
2024/01/07 09:52:10;;;;;;;11.18;7.22;;;1.30;99.90;;;;;;5101603;28;20025;-64
2024/01/07 09:54:38;;;;;;;10.73;6.82;;;1.30;99.90;;;;;;5091488;28;20081;-64
2024/01/07 09:57:07;;;;;;;9.82;7.00;;;1.30;99.90;;;;;;5101292;28;20055;-63
2024/01/07 09:59:37;;;;;;;11.38;6.93;;;1.40;99.90;;;;;;5104131;28;20465;-63
2024/01/07 10:02:03;;;;;;;11.27;6.85;;;1.40;99.90;;;;;;5101523;28;20020;-66
2024/01/07 10:04:29;;;;;;;9.48;6.18;;;1.40;99.90;;;;;;5103253;28;20030;-65
2024/01/07 10:06:55;;;;;;;12.85;6.75;;;1.40;99.90;;;;;;5102671;28;20127;-67
2024/01/07 10:09:27;;;;;;;11.95;6.70;;;1.40;99.90;;;;;;5104672;28;20111;-65
2024/01/07 10:11:53;;;;;;;9.18;6.80;;;1.40;99.90;;;;;;5100445;28;20028;-65
2024/01/07 10:14:22;;;;;;;14.38;7.43;;;1.40;99.90;;;;;;5104048;28;20391;-65
2024/01/07 10:16:49;;;;;;;9.75;6.85;;;1.40;99.90;;;;;;5110604;28;20024;-64
2024/01/07 10:19:22;;;;;;;10.57;6.35;;;1.40;99.90;;;;;;5110783;28;20087;-65
2024/01/07 10:22:01;;;;;;;10.15;6.35;;;1.40;99.90;;;;;;5107076;28;20031;-65
2024/01/07 10:24:41;;;;;;;8.20;6.30;;;1.40;99.90;;;;;;5109011;28;20023;-66
2024/01/07 10:27:07;;;;;;;10.55;6.32;;;1.30;99.90;;;;;;5107830;28;20549;-66
2024/01/07 10:29:34;;;;;;;9.98;6.63;;;1.30;99.90;;;;;;5110510;28;20035;-65
2024/01/07 10:32:04;;;;;;;8.05;5.43;;;1.30;99.90;;;;;;5105423;28;20417;-65
2024/01/07 10:34:34;;;;;;;10.07;6.80;;;1.30;99.90;;;;;;5110210;28;20028;-65
2024/01/07 10:37:01;;;;;;;9.45;6.25;;;1.30;99.90;;;;;;5110180;28;20028;-65
2024/01/07 10:39:27;;;;;;;8.80;6.10;;;1.40;99.90;;;;;;5110045;28;20027;-64
2024/01/07 10:41:57;;;;;;;9.00;5.70;;;1.40;99.90;;;;;;5109798;28;20418;-65
2024/01/07 10:44:30;;;;;;;9.05;5.88;;;1.40;99.90;;;;;;5090622;28;20490;-66
2024/01/07 10:46:56;;;;;;;9.27;6.45;;;1.40;99.90;;;;;;5093438;28;20035;-65
2024/01/07 10:49:26;;;;;;;9.73;6.20;;;1.40;99.90;;;;;;5095077;28;20055;-65
2024/01/07 10:52:06;;;;;;;8.60;5.83;;;1.40;99.90;;;;;;5094483;28;20490;-65
2024/01/07 10:54:33;;;;;;;11.38;6.80;;;1.30;99.90;;;;;;5093199;28;20024;-66
2024/01/07 10:57:15;;;;;;;11.07;6.38;;;1.40;99.90;;;;;;5094128;28;20042;-65
2024/01/07 10:59:41;;;;;;;13.20;6.95;;;1.30;99.90;;;;;;5093004;28;20064;-64
2024/01/07 11:02:08;;;;;;;12.25;6.38;;;1.30;99.90;;;;;;5094705;28;20020;-65
2024/01/07 11:04:51;;;;;;;9.90;6.50;;;1.30;99.90;;;;;;5094623;28;20028;-66
2024/01/07 11:07:48;;;;;;;11.18;6.97;;;1.20;99.90;;;;;;5093540;28;20052;-65
2024/01/07 11:10:17;;;;;;;10.27;6.30;;;1.20;99.90;;;;;;5092330;28;20039;-65
2024/01/07 11:12:43;;;;;;;10.18;6.45;;;1.30;99.90;;;;;;5093940;28;20012;-67
2024/01/07 11:15:09;;;;;;;11.70;6.88;;;1.20;99.90;;;;;;5094398;28;20024;-65
2024/01/07 11:17:37;;;;;;;10.82;6.78;;;1.20;99.90;;;;;;5093055;28;20060;-66
2024/01/07 11:20:11;;;;;;;9.10;6.28;;;1.20;99.90;;;;;;5094230;28;20032;-65
2024/01/07 11:22:36;;;;;;;9.25;6.40;;;1.20;99.90;;;;;;5094311;28;20024;-65
2024/01/07 11:25:22;;;;;;;10.60;6.25;;;1.10;99.90;;;;;;5092488;28;20058;-64
2024/01/07 11:27:48;;;;;;;12.50;7.90;;;1.10;99.90;;;;;;5091194;28;20036;-65
2024/01/07 11:30:20;;;;;;;12.27;7.60;;;1.10;99.90;;;;;;5094231;28;20032;-65
2024/01/07 11:32:48;;;;;;;11.38;7.60;;;1.10;99.90;;;;;;5090970;28;20102;-64
2024/01/07 11:35:15;;;;;;;11.40;7.35;;;1.10;99.90;;;;;;5093825;28;20445;-64
2024/01/07 11:37:41;;;;;;;11.82;7.57;;;1.10;99.90;;;;;;5093400;28;20174;-65
2024/01/07 11:40:08;;;;;;;13.13;8.00;;;1.10;99.90;;;;;;5094045;28;20137;-66
2024/01/07 11:42:33;;;;;;;12.73;7.82;;;1.10;99.90;;;;;;5093845;28;20020;-66
2024/01/07 11:44:59;;;;;;;12.70;6.93;;;1.10;99.90;;;;;;5093278;28;20039;-65
2024/01/07 11:47:28;;;;;;;14.35;7.85;;;1.10;99.90;;;;;;5093934;28;20024;-64
2024/01/07 11:49:54;;;;;;;13.98;7.55;;;1.20;99.90;;;;;;5093157;28;20444;-64
2024/01/07 11:52:20;;;;;;;12.32;7.20;;;1.20;99.90;;;;;;5093694;28;20028;-65
2024/01/07 11:54:47;;;;;;;13.75;8.20;;;1.20;99.90;;;;;;5093311;28;20181;-65
2024/01/07 11:57:13;;;;;;;13.32;8.25;;;1.20;99.90;;;;;;5093791;28;20450;-65
2024/01/07 11:59:39;;;;;;;11.65;7.22;;;1.20;99.90;;;;;;5093361;28;20089;-66
2024/01/07 12:02:04;;;;;;;11.38;7.13;;;1.30;99.90;;;;;;5093547;28;20065;-66
2024/01/07 12:04:33;;;;;;;12.55;7.95;;;1.30;99.90;;;;;;5092317;28;20111;-65
2024/01/07 12:07:00;;;;;;;10.98;6.63;;;1.30;99.90;;;;;;5090378;28;20050;-65
2024/01/07 12:09:26;;;;;;;13.15;7.30;;;1.30;99.90;;;;;;5093632;28;20119;-65
2024/01/07 12:11:52;;;;;;;13.15;7.30;;;1.30;99.90;;;;;;5093004;28;20052;-66
2024/01/07 12:14:19;;;;;;;13.32;8.40;;;1.30;99.90;;;;;;5093094;28;20050;-66
2024/01/07 12:16:45;;;;;;;14.13;8.52;;;1.30;99.90;;;;;;5092884;28;20111;-65
2024/01/07 12:19:11;;;;;;;11.52;7.95;;;1.30;99.90;;;;;;5091857;28;20032;-65
2024/01/07 12:21:37;;;;;;;12.18;7.30;;;1.30;99.90;;;;;;5093170;28;20028;-66
2024/01/07 12:24:04;;;;;;;10.73;7.38;;;1.30;99.90;;;;;;5092793;28;20400;-65
2024/01/07 12:26:30;;;;;;;10.80;7.32;;;1.40;99.90;;;;;;5092927;28;20036;-65
2024/01/07 12:29:06;;;;;;;11.35;7.57;;;1.40;99.90;;;;;;5091433;28;20044;-66
2024/01/07 12:31:33;;;;;;;11.25;7.22;;;1.30;99.90;;;;;;5090925;28;20020;-64
2024/01/07 12:33:59;;;;;;;11.35;7.90;;;1.40;99.90;;;;;;5092620;28;20031;-66
2024/01/07 12:36:25;;;;;;;15.80;8.27;;;1.40;99.90;;;;;;5092819;28;20024;-65
2024/01/07 12:38:54;;;;;;;14.52;7.95;;;1.30;99.90;;;;;;5092493;28;20480;-64
2024/01/07 12:41:20;;;;;;;13.50;8.05;;;1.40;99.90;;;;;;5092491;28;20024;-64
2024/01/07 12:43:46;;;;;;;14.95;8.68;;;1.30;99.90;;;;;;5092025;28;20024;-65
2024/01/07 12:46:11;;;;;;;14.70;8.05;;;1.30;99.90;;;;;;5092563;28;20145;-65
2024/01/07 12:48:37;;;;;;;14.32;8.27;;;1.30;99.90;;;;;;5091356;28;20384;-65